Terminal Aerodrome Forecast
Issued by NWS

Home | Current Version | Previous Version | Text Only | Print | Product List | Glossary On
Versions: 1 2 3 4 5 6 7 8 9 10 11 12 13 14 15 16 17 18 19 20
000
FTUS46 KSTO 111138
TAFMHR
TAF
KMHR 111138Z 1112/1212 VRB05KT 1/4SM FG BKN002
      TEMPO 1112/1116 2SM BR SCT002
     FM111600 VRB05KT 4SM BR BKN015
     FM111800 VRB05KT P6SM BKN250
     FM120900 VRB05KT 4SM BR BKN250=

USA.gov is the U.S. government's official web portal to all federal, state and local government web resources and services.